sensor_id;sensor_type;location;lat;lon;timestamp;P1;durP1;ratioP1;P2;durP2;ratioP2
14209;SDS011;7188;56.070;12.698;2023-02-14T00:02:18;9.90;;;3.27;;
14209;SDS011;7188;56.070;12.698;2023-02-14T00:04:44;7.30;;;3.07;;
14209;SDS011;7188;56.070;12.698;2023-02-14T00:07:12;7.87;;;3.07;;
14209;SDS011;7188;56.070;12.698;2023-02-14T00:09:37;7.43;;;3.17;;
14209;SDS011;7188;56.070;12.698;2023-02-14T00:12:03;7.57;;;3.73;;
14209;SDS011;7188;56.070;12.698;2023-02-14T00:14:29;11.10;;;4.00;;
14209;SDS011;7188;56.070;12.698;2023-02-14T00:17:13;7.43;;;3.83;;
14209;SDS011;7188;56.070;12.698;2023-02-14T00:19:39;8.03;;;3.63;;
14209;SDS011;7188;56.070;12.698;2023-02-14T00:22:05;8.93;;;3.93;;
14209;SDS011;7188;56.070;12.698;2023-02-14T00:24:30;9.77;;;4.77;;
14209;SDS011;7188;56.070;12.698;2023-02-14T00:26:56;4.77;;;3.30;;
14209;SDS011;7188;56.070;12.698;2023-02-14T00:29:23;10.37;;;3.73;;
14209;SDS011;7188;56.070;12.698;2023-02-14T00:31:54;7.37;;;3.83;;
14209;SDS011;7188;56.070;12.698;2023-02-14T00:34:20;7.47;;;3.40;;
14209;SDS011;7188;56.070;12.698;2023-02-14T00:36:45;5.90;;;3.50;;
14209;SDS011;7188;56.070;12.698;2023-02-14T00:39:12;10.17;;;3.70;;
14209;SDS011;7188;56.070;12.698;2023-02-14T00:41:39;6.60;;;3.17;;
14209;SDS011;7188;56.070;12.698;2023-02-14T00:44:05;6.13;;;3.40;;
14209;SDS011;7188;56.070;12.698;2023-02-14T00:46:31;7.57;;;3.93;;
14209;SDS011;7188;56.070;12.698;2023-02-14T00:48:57;9.90;;;3.60;;
14209;SDS011;7188;56.070;12.698;2023-02-14T00:51:23;9.07;;;4.27;;
14209;SDS011;7188;56.070;12.698;2023-02-14T00:53:49;7.07;;;3.80;;
14209;SDS011;7188;56.070;12.698;2023-02-14T00:56:17;9.20;;;4.27;;
14209;SDS011;7188;56.070;12.698;2023-02-14T00:58:43;7.20;;;4.00;;
14209;SDS011;7188;56.070;12.698;2023-02-14T01:03:57;16.03;;;4.37;;
14209;SDS011;7188;56.070;12.698;2023-02-14T01:06:23;14.00;;;4.13;;
14209;SDS011;7188;56.070;12.698;2023-02-14T01:08:49;7.67;;;4.07;;
14209;SDS011;7188;56.070;12.698;2023-02-14T01:11:16;15.37;;;4.80;;
14209;SDS011;7188;56.070;12.698;2023-02-14T01:13:44;6.43;;;3.97;;
14209;SDS011;7188;56.070;12.698;2023-02-14T01:16:11;8.90;;;4.13;;
14209;SDS011;7188;56.070;12.698;2023-02-14T01:18:39;11.43;;;3.90;;
14209;SDS011;7188;56.070;12.698;2023-02-14T01:24:08;7.97;;;4.23;;
14209;SDS011;7188;56.070;12.698;2023-02-14T01:29:20;6.30;;;4.60;;
14209;SDS011;7188;56.070;12.698;2023-02-14T01:31:45;8.03;;;4.40;;
14209;SDS011;7188;56.070;12.698;2023-02-14T01:34:13;11.87;;;4.27;;
14209;SDS011;7188;56.070;12.698;2023-02-14T01:36:38;10.43;;;4.83;;
14209;SDS011;7188;56.070;12.698;2023-02-14T01:39:06;6.33;;;4.10;;
14209;SDS011;7188;56.070;12.698;2023-02-14T01:41:36;7.63;;;4.53;;
14209;SDS011;7188;56.070;12.698;2023-02-14T01:46:43;6.90;;;3.37;;
14209;SDS011;7188;56.070;12.698;2023-02-14T01:49:11;11.10;;;4.83;;
14209;SDS011;7188;56.070;12.698;2023-02-14T01:51:47;11.13;;;4.73;;
14209;SDS011;7188;56.070;12.698;2023-02-14T01:54:22;9.17;;;4.17;;
14209;SDS011;7188;56.070;12.698;2023-02-14T01:56:52;10.83;;;4.27;;
14209;SDS011;7188;56.070;12.698;2023-02-14T01:59:22;10.30;;;3.60;;
14209;SDS011;7188;56.070;12.698;2023-02-14T02:01:52;7.77;;;4.17;;
14209;SDS011;7188;56.070;12.698;2023-02-14T02:04:20;8.43;;;4.23;;
14209;SDS011;7188;56.070;12.698;2023-02-14T02:06:50;6.03;;;3.33;;
14209;SDS011;7188;56.070;12.698;2023-02-14T02:09:34;10.97;;;3.90;;
14209;SDS011;7188;56.070;12.698;2023-02-14T02:12:11;8.37;;;3.63;;
14209;SDS011;7188;56.070;12.698;2023-02-14T02:14:37;9.87;;;4.13;;
14209;SDS011;7188;56.070;12.698;2023-02-14T02:39:02;8.73;;;3.50;;
14209;SDS011;7188;56.070;12.698;2023-02-14T02:44:50;6.70;;;3.23;;
14209;SDS011;7188;56.070;12.698;2023-02-14T02:47:31;10.53;;;3.10;;
14209;SDS011;7188;56.070;12.698;2023-02-14T02:50:31;7.47;;;3.40;;
14209;SDS011;7188;56.070;12.698;2023-02-14T02:56:36;7.53;;;3.10;;
14209;SDS011;7188;56.070;12.698;2023-02-14T02:59:15;4.90;;;2.67;;
14209;SDS011;7188;56.070;12.698;2023-02-14T03:01:56;8.87;;;2.60;;
14209;SDS011;7188;56.070;12.698;2023-02-14T03:04:49;7.80;;;2.93;;
14209;SDS011;7188;56.070;12.698;2023-02-14T03:24:17;6.13;;;2.13;;
14209;SDS011;7188;56.070;12.698;2023-02-14T03:29:58;3.97;;;2.00;;
14209;SDS011;7188;56.070;12.698;2023-02-14T03:32:57;7.00;;;2.10;;
14209;SDS011;7188;56.070;12.698;2023-02-14T03:35:36;6.50;;;2.00;;
14209;SDS011;7188;56.070;12.698;2023-02-14T03:41:01;3.13;;;1.87;;
14209;SDS011;7188;56.070;12.698;2023-02-14T03:48:32;6.43;;;2.20;;
14209;SDS011;7188;56.070;12.698;2023-02-14T03:50:59;6.00;;;1.77;;
14209;SDS011;7188;56.070;12.698;2023-02-14T03:53:27;5.83;;;2.00;;
14209;SDS011;7188;56.070;12.698;2023-02-14T03:55:58;4.13;;;1.77;;
14209;SDS011;7188;56.070;12.698;2023-02-14T03:58:33;6.90;;;2.63;;
14209;SDS011;7188;56.070;12.698;2023-02-14T04:01:14;4.47;;;1.60;;
14209;SDS011;7188;56.070;12.698;2023-02-14T04:06:29;3.73;;;1.93;;
14209;SDS011;7188;56.070;12.698;2023-02-14T04:08:55;6.10;;;1.57;;
14209;SDS011;7188;56.070;12.698;2023-02-14T04:11:20;5.57;;;2.20;;
14209;SDS011;7188;56.070;12.698;2023-02-14T04:13:46;10.03;;;2.10;;
14209;SDS011;7188;56.070;12.698;2023-02-14T04:16:12;7.13;;;2.47;;
14209;SDS011;7188;56.070;12.698;2023-02-14T04:18:37;5.77;;;2.27;;
14209;SDS011;7188;56.070;12.698;2023-02-14T04:21:21;4.27;;;2.00;;
14209;SDS011;7188;56.070;12.698;2023-02-14T04:23:47;6.20;;;1.97;;
14209;SDS011;7188;56.070;12.698;2023-02-14T04:26:13;11.10;;;2.33;;
14209;SDS011;7188;56.070;12.698;2023-02-14T04:28:39;10.33;;;2.43;;
14209;SDS011;7188;56.070;12.698;2023-02-14T04:31:05;7.03;;;2.23;;
14209;SDS011;7188;56.070;12.698;2023-02-14T04:33:31;3.80;;;2.00;;
14209;SDS011;7188;56.070;12.698;2023-02-14T04:35:58;7.53;;;1.90;;
14209;SDS011;7188;56.070;12.698;2023-02-14T04:38:24;9.40;;;2.47;;
14209;SDS011;7188;56.070;12.698;2023-02-14T04:40:50;8.77;;;1.73;;
14209;SDS011;7188;56.070;12.698;2023-02-14T04:43:16;4.77;;;1.70;;
14209;SDS011;7188;56.070;12.698;2023-02-14T04:45:43;5.37;;;2.27;;
14209;SDS011;7188;56.070;12.698;2023-02-14T04:48:08;3.37;;;1.80;;
14209;SDS011;7188;56.070;12.698;2023-02-14T04:50:34;7.13;;;2.00;;
14209;SDS011;7188;56.070;12.698;2023-02-14T04:53:00;5.00;;;1.90;;
14209;SDS011;7188;56.070;12.698;2023-02-14T04:55:25;6.70;;;2.00;;
14209;SDS011;7188;56.070;12.698;2023-02-14T04:57:51;5.47;;;2.37;;
14209;SDS011;7188;56.070;12.698;2023-02-14T05:00:17;5.40;;;1.80;;
14209;SDS011;7188;56.070;12.698;2023-02-14T05:02:43;5.13;;;1.80;;
14209;SDS011;7188;56.070;12.698;2023-02-14T05:07:56;4.80;;;1.73;;
14209;SDS011;7188;56.070;12.698;2023-02-14T05:10:22;8.87;;;2.30;;
14209;SDS011;7188;56.070;12.698;2023-02-14T05:12:47;2.37;;;1.80;;
14209;SDS011;7188;56.070;12.698;2023-02-14T05:15:13;4.63;;;1.93;;
14209;SDS011;7188;56.070;12.698;2023-02-14T05:17:39;4.83;;;1.90;;
14209;SDS011;7188;56.070;12.698;2023-02-14T05:20:04;6.07;;;2.80;;
14209;SDS011;7188;56.070;12.698;2023-02-14T05:22:31;5.40;;;2.33;;
14209;SDS011;7188;56.070;12.698;2023-02-14T05:24:56;8.03;;;2.20;;
14209;SDS011;7188;56.070;12.698;2023-02-14T05:27:22;4.93;;;1.77;;
14209;SDS011;7188;56.070;12.698;2023-02-14T05:29:47;2.77;;;1.67;;
14209;SDS011;7188;56.070;12.698;2023-02-14T05:32:13;6.53;;;2.13;;
14209;SDS011;7188;56.070;12.698;2023-02-14T05:34:39;8.27;;;2.30;;
14209;SDS011;7188;56.070;12.698;2023-02-14T05:37:05;4.57;;;2.27;;
14209;SDS011;7188;56.070;12.698;2023-02-14T05:39:30;3.60;;;1.93;;
14209;SDS011;7188;56.070;12.698;2023-02-14T05:41:56;6.20;;;2.10;;
14209;SDS011;7188;56.070;12.698;2023-02-14T05:44:21;5.43;;;2.43;;
14209;SDS011;7188;56.070;12.698;2023-02-14T05:46:47;3.97;;;1.90;;
14209;SDS011;7188;56.070;12.698;2023-02-14T05:49:13;7.90;;;2.10;;
14209;SDS011;7188;56.070;12.698;2023-02-14T05:51:39;4.90;;;2.03;;
14209;SDS011;7188;56.070;12.698;2023-02-14T05:54:04;5.10;;;2.00;;
14209;SDS011;7188;56.070;12.698;2023-02-14T05:56:30;7.70;;;2.23;;
14209;SDS011;7188;56.070;12.698;2023-02-14T06:01:52;10.37;;;2.47;;
14209;SDS011;7188;56.070;12.698;2023-02-14T06:04:18;6.53;;;1.80;;
14209;SDS011;7188;56.070;12.698;2023-02-14T06:06:43;6.13;;;1.83;;
14209;SDS011;7188;56.070;12.698;2023-02-14T06:09:09;7.50;;;1.70;;
14209;SDS011;7188;56.070;12.698;2023-02-14T06:11:35;4.70;;;2.07;;
14209;SDS011;7188;56.070;12.698;2023-02-14T06:14:00;6.63;;;1.80;;
14209;SDS011;7188;56.070;12.698;2023-02-14T06:16:26;7.80;;;2.10;;
14209;SDS011;7188;56.070;12.698;2023-02-14T06:18:51;7.17;;;2.23;;
14209;SDS011;7188;56.070;12.698;2023-02-14T06:21:17;7.03;;;2.07;;
14209;SDS011;7188;56.070;12.698;2023-02-14T06:23:43;5.97;;;2.00;;
14209;SDS011;7188;56.070;12.698;2023-02-14T06:26:08;5.33;;;2.27;;
14209;SDS011;7188;56.070;12.698;2023-02-14T06:28:34;5.47;;;2.03;;
14209;SDS011;7188;56.070;12.698;2023-02-14T06:30:59;6.30;;;2.27;;
14209;SDS011;7188;56.070;12.698;2023-02-14T06:33:25;4.43;;;2.27;;
14209;SDS011;7188;56.070;12.698;2023-02-14T06:35:52;2.93;;;1.83;;
14209;SDS011;7188;56.070;12.698;2023-02-14T06:38:19;2.37;;;2.10;;
14209;SDS011;7188;56.070;12.698;2023-02-14T06:40:45;5.13;;;2.73;;
14209;SDS011;7188;56.070;12.698;2023-02-14T06:43:10;4.90;;;2.40;;
14209;SDS011;7188;56.070;12.698;2023-02-14T06:45:36;4.77;;;2.30;;
14209;SDS011;7188;56.070;12.698;2023-02-14T06:48:02;4.10;;;2.13;;
14209;SDS011;7188;56.070;12.698;2023-02-14T06:50:27;5.13;;;2.00;;
14209;SDS011;7188;56.070;12.698;2023-02-14T06:52:53;8.27;;;2.37;;
14209;SDS011;7188;56.070;12.698;2023-02-14T06:55:19;4.27;;;2.47;;
14209;SDS011;7188;56.070;12.698;2023-02-14T06:57:44;6.07;;;2.30;;
14209;SDS011;7188;56.070;12.698;2023-02-14T07:00:10;5.30;;;1.97;;
14209;SDS011;7188;56.070;12.698;2023-02-14T07:02:38;5.87;;;2.20;;
14209;SDS011;7188;56.070;12.698;2023-02-14T07:05:04;3.83;;;2.47;;
14209;SDS011;7188;56.070;12.698;2023-02-14T07:07:30;5.00;;;3.00;;
14209;SDS011;7188;56.070;12.698;2023-02-14T07:09:55;3.87;;;2.77;;
14209;SDS011;7188;56.070;12.698;2023-02-14T07:12:21;5.20;;;3.30;;
14209;SDS011;7188;56.070;12.698;2023-02-14T07:14:47;4.40;;;2.87;;
14209;SDS011;7188;56.070;12.698;2023-02-14T07:17:12;5.50;;;2.50;;
14209;SDS011;7188;56.070;12.698;2023-02-14T07:19:38;6.40;;;3.43;;
14209;SDS011;7188;56.070;12.698;2023-02-14T07:22:03;8.17;;;3.13;;
14209;SDS011;7188;56.070;12.698;2023-02-14T07:24:29;3.67;;;2.60;;
14209;SDS011;7188;56.070;12.698;2023-02-14T07:26:55;7.70;;;4.00;;
14209;SDS011;7188;56.070;12.698;2023-02-14T07:29:20;6.80;;;2.90;;
14209;SDS011;7188;56.070;12.698;2023-02-14T07:31:46;5.23;;;3.10;;
14209;SDS011;7188;56.070;12.698;2023-02-14T07:34:11;5.63;;;2.70;;
14209;SDS011;7188;56.070;12.698;2023-02-14T07:36:37;8.03;;;2.80;;
14209;SDS011;7188;56.070;12.698;2023-02-14T07:39:03;4.47;;;2.50;;
14209;SDS011;7188;56.070;12.698;2023-02-14T07:41:29;7.50;;;3.17;;
14209;SDS011;7188;56.070;12.698;2023-02-14T07:43:55;3.13;;;1.90;;
14209;SDS011;7188;56.070;12.698;2023-02-14T07:46:20;4.60;;;2.57;;
14209;SDS011;7188;56.070;12.698;2023-02-14T07:48:46;4.60;;;2.47;;
14209;SDS011;7188;56.070;12.698;2023-02-14T07:51:12;3.97;;;2.80;;
14209;SDS011;7188;56.070;12.698;2023-02-14T07:53:38;3.17;;;2.53;;
14209;SDS011;7188;56.070;12.698;2023-02-14T07:56:05;7.70;;;2.60;;
14209;SDS011;7188;56.070;12.698;2023-02-14T07:58:30;6.60;;;2.50;;
14209;SDS011;7188;56.070;12.698;2023-02-14T08:00:56;5.87;;;2.47;;
14209;SDS011;7188;56.070;12.698;2023-02-14T08:03:22;4.47;;;1.90;;
14209;SDS011;7188;56.070;12.698;2023-02-14T08:05:48;6.40;;;2.40;;
14209;SDS011;7188;56.070;12.698;2023-02-14T08:08:26;6.33;;;2.20;;
14209;SDS011;7188;56.070;12.698;2023-02-14T08:10:54;2.63;;;1.70;;
14209;SDS011;7188;56.070;12.698;2023-02-14T08:13:20;3.07;;;2.17;;
14209;SDS011;7188;56.070;12.698;2023-02-14T08:15:45;3.70;;;1.57;;
14209;SDS011;7188;56.070;12.698;2023-02-14T08:18:31;4.53;;;1.73;;
14209;SDS011;7188;56.070;12.698;2023-02-14T08:20:58;2.80;;;1.97;;
14209;SDS011;7188;56.070;12.698;2023-02-14T08:23:24;6.17;;;1.77;;
14209;SDS011;7188;56.070;12.698;2023-02-14T08:25:50;3.80;;;1.63;;
14209;SDS011;7188;56.070;12.698;2023-02-14T08:28:16;2.43;;;1.43;;
14209;SDS011;7188;56.070;12.698;2023-02-14T08:30:43;4.40;;;1.83;;
14209;SDS011;7188;56.070;12.698;2023-02-14T08:33:09;4.47;;;1.60;;
14209;SDS011;7188;56.070;12.698;2023-02-14T08:35:35;2.60;;;1.50;;
14209;SDS011;7188;56.070;12.698;2023-02-14T08:38:00;1.67;;;1.50;;
14209;SDS011;7188;56.070;12.698;2023-02-14T08:40:27;5.17;;;2.00;;
14209;SDS011;7188;56.070;12.698;2023-02-14T08:42:53;5.47;;;1.77;;
14209;SDS011;7188;56.070;12.698;2023-02-14T08:45:18;7.43;;;2.10;;
14209;SDS011;7188;56.070;12.698;2023-02-14T08:47:44;5.77;;;1.60;;
14209;SDS011;7188;56.070;12.698;2023-02-14T08:50:11;2.77;;;1.50;;
14209;SDS011;7188;56.070;12.698;2023-02-14T08:52:40;2.23;;;1.60;;
14209;SDS011;7188;56.070;12.698;2023-02-14T08:55:08;5.67;;;2.30;;
14209;SDS011;7188;56.070;12.698;2023-02-14T08:57:34;3.50;;;1.57;;
14209;SDS011;7188;56.070;12.698;2023-02-14T09:00:00;6.47;;;1.87;;
14209;SDS011;7188;56.070;12.698;2023-02-14T09:02:26;4.60;;;1.77;;
14209;SDS011;7188;56.070;12.698;2023-02-14T09:04:52;4.40;;;1.33;;
14209;SDS011;7188;56.070;12.698;2023-02-14T09:07:17;5.93;;;1.70;;
14209;SDS011;7188;56.070;12.698;2023-02-14T09:09:43;4.13;;;1.77;;
14209;SDS011;7188;56.070;12.698;2023-02-14T09:12:09;4.63;;;1.50;;
14209;SDS011;7188;56.070;12.698;2023-02-14T09:14:35;4.83;;;2.20;;
14209;SDS011;7188;56.070;12.698;2023-02-14T09:17:03;4.23;;;2.10;;
14209;SDS011;7188;56.070;12.698;2023-02-14T09:19:33;2.50;;;1.87;;
14209;SDS011;7188;56.070;12.698;2023-02-14T09:22:00;2.43;;;1.47;;
14209;SDS011;7188;56.070;12.698;2023-02-14T09:24:28;5.77;;;2.23;;
14209;SDS011;7188;56.070;12.698;2023-02-14T09:26:54;4.50;;;1.73;;
14209;SDS011;7188;56.070;12.698;2023-02-14T09:29:22;6.17;;;2.13;;
14209;SDS011;7188;56.070;12.698;2023-02-14T09:31:50;3.47;;;1.77;;
14209;SDS011;7188;56.070;12.698;2023-02-14T09:34:17;3.23;;;1.60;;
14209;SDS011;7188;56.070;12.698;2023-02-14T09:37:01;2.57;;;1.43;;
14209;SDS011;7188;56.070;12.698;2023-02-14T09:39:45;3.23;;;1.57;;
14209;SDS011;7188;56.070;12.698;2023-02-14T09:42:19;4.60;;;1.80;;
14209;SDS011;7188;56.070;12.698;2023-02-14T09:45:11;3.47;;;1.60;;
14209;SDS011;7188;56.070;12.698;2023-02-14T09:50:38;3.87;;;1.47;;
14209;SDS011;7188;56.070;12.698;2023-02-14T09:55:50;5.23;;;1.60;;
14209;SDS011;7188;56.070;12.698;2023-02-14T09:58:39;3.57;;;1.57;;
14209;SDS011;7188;56.070;12.698;2023-02-14T10:04:13;3.63;;;1.40;;
14209;SDS011;7188;56.070;12.698;2023-02-14T10:06:56;5.03;;;1.63;;
14209;SDS011;7188;56.070;12.698;2023-02-14T10:10:28;5.17;;;1.87;;
14209;SDS011;7188;56.070;12.698;2023-02-14T10:15:11;3.23;;;1.27;;
14209;SDS011;7188;56.070;12.698;2023-02-14T10:17:45;2.03;;;1.53;;
14209;SDS011;7188;56.070;12.698;2023-02-14T10:20:27;3.93;;;1.70;;
14209;SDS011;7188;56.070;12.698;2023-02-14T10:23:04;5.67;;;1.50;;
14209;SDS011;7188;56.070;12.698;2023-02-14T10:26:00;2.87;;;1.97;;
14209;SDS011;7188;56.070;12.698;2023-02-14T10:28:32;7.00;;;2.40;;
14209;SDS011;7188;56.070;12.698;2023-02-14T10:33:47;1.87;;;1.60;;
14209;SDS011;7188;56.070;12.698;2023-02-14T10:45:25;4.10;;;1.60;;
14209;SDS011;7188;56.070;12.698;2023-02-14T10:48:14;3.87;;;1.97;;
14209;SDS011;7188;56.070;12.698;2023-02-14T10:55:58;3.83;;;2.00;;
14209;SDS011;7188;56.070;12.698;2023-02-14T10:58:30;10.17;;;2.47;;
14209;SDS011;7188;56.070;12.698;2023-02-14T11:01:18;3.83;;;2.00;;
14209;SDS011;7188;56.070;12.698;2023-02-14T11:04:17;3.03;;;2.30;;
14209;SDS011;7188;56.070;12.698;2023-02-14T11:06:38;3.10;;;2.27;;
14209;SDS011;7188;56.070;12.698;2023-02-14T11:09:03;3.53;;;1.87;;
14209;SDS011;7188;56.070;12.698;2023-02-14T11:11:30;2.10;;;2.00;;
14209;SDS011;7188;56.070;12.698;2023-02-14T11:14:27;4.73;;;2.23;;
14209;SDS011;7188;56.070;12.698;2023-02-14T11:16:54;2.93;;;2.00;;
14209;SDS011;7188;56.070;12.698;2023-02-14T11:21:55;10.27;;;2.33;;
14209;SDS011;7188;56.070;12.698;2023-02-14T11:24:36;4.00;;;2.93;;
14209;SDS011;7188;56.070;12.698;2023-02-14T11:27:05;6.00;;;2.50;;
14209;SDS011;7188;56.070;12.698;2023-02-14T11:29:42;2.43;;;2.30;;
14209;SDS011;7188;56.070;12.698;2023-02-14T11:32:13;7.87;;;2.57;;
14209;SDS011;7188;56.070;12.698;2023-02-14T11:34:45;2.73;;;2.23;;
14209;SDS011;7188;56.070;12.698;2023-02-14T11:37:27;3.70;;;3.13;;
14209;SDS011;7188;56.070;12.698;2023-02-14T11:39:57;6.17;;;3.40;;
14209;SDS011;7188;56.070;12.698;2023-02-14T11:42:40;5.37;;;3.20;;
14209;SDS011;7188;56.070;12.698;2023-02-14T11:45:24;6.43;;;2.87;;
14209;SDS011;7188;56.070;12.698;2023-02-14T11:50:36;3.93;;;2.77;;
14209;SDS011;7188;56.070;12.698;2023-02-14T11:53:03;5.80;;;3.13;;
14209;SDS011;7188;56.070;12.698;2023-02-14T11:55:30;3.50;;;3.20;;
14209;SDS011;7188;56.070;12.698;2023-02-14T11:57:57;3.77;;;2.77;;
14209;SDS011;7188;56.070;12.698;2023-02-14T12:00:25;6.63;;;3.47;;
14209;SDS011;7188;56.070;12.698;2023-02-14T12:02:54;3.93;;;2.57;;
14209;SDS011;7188;56.070;12.698;2023-02-14T12:05:25;6.10;;;3.07;;
14209;SDS011;7188;56.070;12.698;2023-02-14T12:07:54;5.97;;;2.80;;
14209;SDS011;7188;56.070;12.698;2023-02-14T12:10:29;4.63;;;3.30;;
14209;SDS011;7188;56.070;12.698;2023-02-14T12:26:42;4.67;;;3.20;;
14209;SDS011;7188;56.070;12.698;2023-02-14T12:29:14;5.00;;;3.23;;
14209;SDS011;7188;56.070;12.698;2023-02-14T12:31:52;3.27;;;2.97;;
14209;SDS011;7188;56.070;12.698;2023-02-14T12:34:20;3.83;;;2.70;;
14209;SDS011;7188;56.070;12.698;2023-02-14T12:50:37;3.40;;;3.00;;
14209;SDS011;7188;56.070;12.698;2023-02-14T12:53:30;6.87;;;3.53;;
14209;SDS011;7188;56.070;12.698;2023-02-14T12:56:29;3.03;;;2.83;;
14209;SDS011;7188;56.070;12.698;2023-02-14T13:07:42;3.40;;;2.87;;
14209;SDS011;7188;56.070;12.698;2023-02-14T13:11:06;3.17;;;2.70;;
14209;SDS011;7188;56.070;12.698;2023-02-14T13:16:30;3.20;;;2.67;;
14209;SDS011;7188;56.070;12.698;2023-02-14T13:22:09;3.07;;;2.73;;
14209;SDS011;7188;56.070;12.698;2023-02-14T13:24:41;4.43;;;2.60;;
14209;SDS011;7188;56.070;12.698;2023-02-14T13:27:11;3.60;;;3.30;;
14209;SDS011;7188;56.070;12.698;2023-02-14T13:29:43;6.20;;;3.33;;
14209;SDS011;7188;56.070;12.698;2023-02-14T13:32:13;3.60;;;2.43;;
14209;SDS011;7188;56.070;12.698;2023-02-14T13:34:42;4.20;;;2.83;;
14209;SDS011;7188;56.070;12.698;2023-02-14T13:37:11;6.63;;;3.00;;
14209;SDS011;7188;56.070;12.698;2023-02-14T13:39:40;3.70;;;3.30;;
14209;SDS011;7188;56.070;12.698;2023-02-14T13:42:09;3.47;;;3.23;;
14209;SDS011;7188;56.070;12.698;2023-02-14T13:44:49;5.27;;;3.53;;
14209;SDS011;7188;56.070;12.698;2023-02-14T13:49:54;3.07;;;2.80;;
14209;SDS011;7188;56.070;12.698;2023-02-14T13:52:38;3.67;;;3.07;;
14209;SDS011;7188;56.070;12.698;2023-02-14T13:55:18;3.53;;;3.23;;
14209;SDS011;7188;56.070;12.698;2023-02-14T13:57:58;3.50;;;2.97;;
14209;SDS011;7188;56.070;12.698;2023-02-14T14:00:39;4.67;;;3.40;;
14209;SDS011;7188;56.070;12.698;2023-02-14T14:03:06;5.10;;;3.50;;
14209;SDS011;7188;56.070;12.698;2023-02-14T14:06:03;5.67;;;3.73;;
14209;SDS011;7188;56.070;12.698;2023-02-14T14:08:39;3.73;;;3.30;;
14209;SDS011;7188;56.070;12.698;2023-02-14T14:11:10;3.70;;;3.17;;
14209;SDS011;7188;56.070;12.698;2023-02-14T14:13:58;5.07;;;3.37;;
14209;SDS011;7188;56.070;12.698;2023-02-14T14:16:29;5.80;;;3.80;;
14209;SDS011;7188;56.070;12.698;2023-02-14T14:19:09;4.57;;;4.00;;
14209;SDS011;7188;56.070;12.698;2023-02-14T14:24:55;6.30;;;4.37;;
14209;SDS011;7188;56.070;12.698;2023-02-14T14:30:21;4.93;;;4.60;;
14209;SDS011;7188;56.070;12.698;2023-02-14T14:33:13;5.70;;;4.87;;
14209;SDS011;7188;56.070;12.698;2023-02-14T14:35:59;4.47;;;4.07;;
14209;SDS011;7188;56.070;12.698;2023-02-14T14:38:26;5.57;;;5.00;;
14209;SDS011;7188;56.070;12.698;2023-02-14T14:40:52;4.97;;;4.47;;
14209;SDS011;7188;56.070;12.698;2023-02-14T14:43:32;6.53;;;5.33;;
14209;SDS011;7188;56.070;12.698;2023-02-14T14:46:00;8.10;;;7.30;;
14209;SDS011;7188;56.070;12.698;2023-02-14T14:50:55;11.00;;;9.70;;
14209;SDS011;7188;56.070;12.698;2023-02-14T14:53:26;7.90;;;7.20;;
14209;SDS011;7188;56.070;12.698;2023-02-14T14:55:59;11.73;;;9.20;;
14209;SDS011;7188;56.070;12.698;2023-02-14T14:58:43;12.63;;;10.50;;
14209;SDS011;7188;56.070;12.698;2023-02-14T15:01:25;14.37;;;10.23;;
14209;SDS011;7188;56.070;12.698;2023-02-14T15:04:13;14.40;;;10.07;;
14209;SDS011;7188;56.070;12.698;2023-02-14T15:09:45;14.50;;;11.90;;
14209;SDS011;7188;56.070;12.698;2023-02-14T15:12:11;19.20;;;13.57;;
14209;SDS011;7188;56.070;12.698;2023-02-14T15:15:02;15.70;;;12.03;;
14209;SDS011;7188;56.070;12.698;2023-02-14T15:17:30;16.87;;;12.23;;
14209;SDS011;7188;56.070;12.698;2023-02-14T15:20:00;12.57;;;11.27;;
14209;SDS011;7188;56.070;12.698;2023-02-14T15:25:17;13.37;;;11.60;;
14209;SDS011;7188;56.070;12.698;2023-02-14T15:27:46;14.40;;;12.63;;
14209;SDS011;7188;56.070;12.698;2023-02-14T15:32:47;11.33;;;10.13;;
14209;SDS011;7188;56.070;12.698;2023-02-14T15:35:15;16.27;;;13.67;;
14209;SDS011;7188;56.070;12.698;2023-02-14T15:37:42;12.00;;;9.47;;
14209;SDS011;7188;56.070;12.698;2023-02-14T15:40:19;12.10;;;9.40;;
14209;SDS011;7188;56.070;12.698;2023-02-14T15:42:50;12.17;;;10.33;;
14209;SDS011;7188;56.070;12.698;2023-02-14T15:50:31;13.57;;;11.13;;
14209;SDS011;7188;56.070;12.698;2023-02-14T15:53:44;15.47;;;11.27;;
14209;SDS011;7188;56.070;12.698;2023-02-14T15:56:04;12.43;;;10.60;;
14209;SDS011;7188;56.070;12.698;2023-02-14T15:58:43;14.87;;;12.17;;
14209;SDS011;7188;56.070;12.698;2023-02-14T16:01:10;15.10;;;12.70;;
14209;SDS011;7188;56.070;12.698;2023-02-14T16:03:37;15.83;;;12.50;;
14209;SDS011;7188;56.070;12.698;2023-02-14T16:06:11;21.10;;;13.80;;
14209;SDS011;7188;56.070;12.698;2023-02-14T16:08:58;15.00;;;12.40;;
14209;SDS011;7188;56.070;12.698;2023-02-14T16:11:29;14.93;;;11.60;;
14209;SDS011;7188;56.070;12.698;2023-02-14T16:13:55;14.47;;;11.67;;
14209;SDS011;7188;56.070;12.698;2023-02-14T16:16:20;15.40;;;11.90;;
14209;SDS011;7188;56.070;12.698;2023-02-14T16:21:21;14.67;;;11.43;;
14209;SDS011;7188;56.070;12.698;2023-02-14T16:26:36;12.67;;;9.53;;
14209;SDS011;7188;56.070;12.698;2023-02-14T16:29:04;12.43;;;10.80;;
14209;SDS011;7188;56.070;12.698;2023-02-14T16:31:30;13.37;;;9.67;;
14209;SDS011;7188;56.070;12.698;2023-02-14T16:33:56;15.03;;;11.83;;
14209;SDS011;7188;56.070;12.698;2023-02-14T16:36:26;14.83;;;12.40;;
14209;SDS011;7188;56.070;12.698;2023-02-14T16:38:53;15.13;;;11.57;;
14209;SDS011;7188;56.070;12.698;2023-02-14T16:41:26;14.40;;;11.10;;
14209;SDS011;7188;56.070;12.698;2023-02-14T16:43:53;13.90;;;11.53;;
14209;SDS011;7188;56.070;12.698;2023-02-14T16:46:21;15.40;;;10.30;;
14209;SDS011;7188;56.070;12.698;2023-02-14T16:48:49;15.23;;;11.67;;
14209;SDS011;7188;56.070;12.698;2023-02-14T16:51:17;17.50;;;11.80;;
14209;SDS011;7188;56.070;12.698;2023-02-14T16:53:44;12.47;;;8.30;;
14209;SDS011;7188;56.070;12.698;2023-02-14T16:56:25;13.20;;;9.27;;
14209;SDS011;7188;56.070;12.698;2023-02-14T16:58:52;14.77;;;10.33;;
14209;SDS011;7188;56.070;12.698;2023-02-14T17:01:18;10.80;;;9.53;;
14209;SDS011;7188;56.070;12.698;2023-02-14T17:03:44;15.57;;;9.80;;
14209;SDS011;7188;56.070;12.698;2023-02-14T17:06:12;13.90;;;10.17;;
14209;SDS011;7188;56.070;12.698;2023-02-14T17:08:41;15.20;;;10.03;;
14209;SDS011;7188;56.070;12.698;2023-02-14T17:11:07;9.90;;;8.53;;
14209;SDS011;7188;56.070;12.698;2023-02-14T17:13:34;15.20;;;10.53;;
14209;SDS011;7188;56.070;12.698;2023-02-14T17:16:14;12.73;;;9.73;;
14209;SDS011;7188;56.070;12.698;2023-02-14T17:18:41;15.80;;;9.83;;
14209;SDS011;7188;56.070;12.698;2023-02-14T17:21:11;11.20;;;9.03;;
14209;SDS011;7188;56.070;12.698;2023-02-14T17:23:37;14.97;;;9.80;;
14209;SDS011;7188;56.070;12.698;2023-02-14T17:26:03;12.87;;;8.67;;
14209;SDS011;7188;56.070;12.698;2023-02-14T17:28:30;10.47;;;9.00;;
14209;SDS011;7188;56.070;12.698;2023-02-14T17:30:56;9.50;;;8.17;;
14209;SDS011;7188;56.070;12.698;2023-02-14T17:33:21;12.90;;;8.47;;
14209;SDS011;7188;56.070;12.698;2023-02-14T17:35:48;11.60;;;8.63;;
14209;SDS011;7188;56.070;12.698;2023-02-14T17:38:15;13.33;;;9.47;;
14209;SDS011;7188;56.070;12.698;2023-02-14T17:40:40;14.40;;;9.40;;
14209;SDS011;7188;56.070;12.698;2023-02-14T17:43:06;12.20;;;9.27;;
14209;SDS011;7188;56.070;12.698;2023-02-14T17:45:32;10.90;;;7.90;;
14209;SDS011;7188;56.070;12.698;2023-02-14T17:47:58;11.27;;;8.93;;
14209;SDS011;7188;56.070;12.698;2023-02-14T17:50:23;11.50;;;8.30;;
14209;SDS011;7188;56.070;12.698;2023-02-14T17:52:55;9.60;;;8.60;;
14209;SDS011;7188;56.070;12.698;2023-02-14T17:55:21;9.07;;;7.53;;
14209;SDS011;7188;56.070;12.698;2023-02-14T17:57:47;8.37;;;7.53;;
14209;SDS011;7188;56.070;12.698;2023-02-14T18:00:17;9.80;;;7.53;;
14209;SDS011;7188;56.070;12.698;2023-02-14T18:02:47;9.67;;;7.30;;
14209;SDS011;7188;56.070;12.698;2023-02-14T18:05:13;11.17;;;7.90;;